Time;durP1;ratioP1;P1;durP2;ratioP2;P2;SDS_P1;SDS_P2;PMS_P1;PMS_P2;Temp;Humidity;BMP_temperature;BMP_pressure;BME280_temperature;BME280_humidity;BME280_pressure;Samples;Min_cycle;Max_cycle;Signal;HPM_P1;HPM_P2
2023/01/28 00:01:24;;;;;;;;;;;;;;;7.62;49.59;99562.53;4479168;31;34365;-64
2023/01/28 00:03:52;;;;;;;;;;;;;;;7.94;48.30;99560.38;4479944;31;34201;-65
2023/01/28 00:06:19;;;;;;;;;;;;;;;7.70;49.14;99565.53;4474798;31;35661;-64
2023/01/28 00:08:47;;;;;;;;;;;;;;;7.60;48.89;99569.75;4476089;32;35460;-65
2023/01/28 00:11:14;;;;;;;;;;;;;;;7.70;49.00;99576.16;4474221;32;33784;-64
2023/01/28 00:13:42;;;;;;;;;;;;;;;7.74;48.96;99569.72;4476536;32;33930;-65
2023/01/28 00:16:09;;;;;;;;;;;;;;;7.60;49.57;99570.59;4477478;32;34504;-65
2023/01/28 00:18:36;;;;;;;;;;;;;;;7.91;48.48;99574.75;4468497;32;32971;-64
2023/01/28 00:21:05;;;;;;;;;;;;;;;7.77;48.94;99582.84;4469625;32;33579;-65
2023/01/28 00:23:33;;;;;;;;;;;;;;;7.79;48.89;99577.38;4474604;31;34451;-64
2023/01/28 00:26:02;;;;;;;;;;;;;;;7.73;48.96;99570.66;4472477;32;34336;-65
2023/01/28 00:28:29;;;;;;;;;;;;;;;7.76;48.71;99575.78;4477464;31;34203;-66
2023/01/28 00:30:56;;;;;;;;;;;;;;;7.79;48.66;99580.91;4472930;31;34530;-65
2023/01/28 00:33:28;;;;;;;;;;;;;;;7.66;49.06;99580.84;4475714;31;33999;-64
2023/01/28 00:35:59;;;;;;;;;;;;;;;7.56;49.01;99573.56;4480557;32;32978;-64
2023/01/28 00:38:27;;;;;;;;;;;;;;;7.49;49.45;99577.59;4474329;32;34582;-66
2023/01/28 00:40:54;;;;;;;;;;;;;;;7.61;50.25;99585.66;4475465;32;32237;-64
2023/01/28 00:43:22;;;;;;;;;;;;;;;7.94;48.72;99579.03;4478355;32;33937;-65
2023/01/28 00:45:50;;;;;;;;;;;;;;;8.02;48.02;99579.38;4471999;31;33749;-65
2023/01/28 00:48:17;;;;;;;;;;;;;;;7.81;48.75;99583.47;4482158;31;35023;-64
2023/01/28 00:50:45;;;;;;;;;;;;;;;7.59;49.12;99579.56;4482450;32;33300;-64
2023/01/28 00:53:13;;;;;;;;;;;;;;;7.45;49.54;99588.44;4471261;31;33982;-63
2023/01/28 00:55:40;;;;;;;;;;;;;;;7.57;49.91;99592.09;4471533;31;35643;-64
2023/01/28 00:58:08;;;;;;;;;;;;;;;7.67;49.40;99585.25;4479662;32;33209;-64
2023/01/28 01:00:35;;;;;;;;;;;;;;;7.77;49.10;99589.94;4469520;32;33730;-63
2023/01/28 01:03:02;;;;;;;;;;;;;;;8.01;48.93;99588.34;4476266;31;35083;-65
2023/01/28 01:05:29;;;;;;;;;;;;;;;7.61;49.45;99592.78;4472630;32;35146;-66
2023/01/28 01:07:57;;;;;;;;;;;;;;;8.06;47.94;99593.38;4480739;32;34401;-64
2023/01/28 01:10:24;;;;;;;;;;;;;;;7.89;48.43;99590.00;4474652;32;33484;-64
2023/01/28 01:12:51;;;;;;;;;;;;;;;7.54;49.63;99589.63;4476151;31;33365;-65
2023/01/28 01:15:19;;;;;;;;;;;;;;;7.92;48.12;99594.28;4478007;32;35146;-64
2023/01/28 01:17:47;;;;;;;;;;;;;;;8.09;47.82;99594.03;4457240;32;34177;-65
2023/01/28 01:20:16;;;;;;;;;;;;;;;8.06;47.94;99594.22;4472489;32;33140;-64
2023/01/28 01:22:43;;;;;;;;;;;;;;;7.67;48.96;99595.91;4478642;32;33730;-66
2023/01/28 01:25:11;;;;;;;;;;;;;;;7.70;48.96;99593.03;4464281;32;37086;-64
2023/01/28 01:27:40;;;;;;;;;;;;;;;7.93;48.13;99586.19;4466959;32;35516;-66
2023/01/28 01:30:08;;;;;;;;;;;;;;;7.99;47.92;99586.72;4475952;32;33763;-63
2023/01/28 01:32:35;;;;;;;;;;;;;;;8.12;47.50;99590.28;4455793;32;33904;-64
2023/01/28 01:35:05;;;;;;;;;;;;;;;7.59;48.90;99592.03;4473900;31;35427;-64
2023/01/28 01:37:33;;;;;;;;;;;;;;;7.65;49.44;99588.97;4472599;31;34580;-65
2023/01/28 01:40:01;;;;;;;;;;;;;;;7.87;48.23;99593.75;4473380;32;34197;-62
2023/01/28 01:42:29;;;;;;;;;;;;;;;8.13;47.20;99594.66;4471314;32;33895;-63
2023/01/28 01:45:06;;;;;;;;;;;;;;;8.28;46.77;99598.97;4471606;32;34415;-62
2023/01/28 01:47:41;;;;;;;;;;;;;;;8.43;46.37;99596.25;4466412;32;34958;-63
2023/01/28 01:50:11;;;;;;;;;;;;;;;8.58;46.27;99596.06;4453314;32;33532;-62
2023/01/28 01:52:38;;;;;;;;;;;;;;;8.74;45.62;99592.31;4454384;32;33236;-62
2023/01/28 01:55:08;;;;;;;;;;;;;;;8.76;45.65;99593.06;4460407;32;32949;-62
2023/01/28 01:57:36;;;;;;;;;;;;;;;8.88;45.37;99599.34;4470009;32;34121;-63
2023/01/28 02:00:05;;;;;;;;;;;;;;;9.04;44.96;99605.31;4453812;32;33983;-66
2023/01/28 02:02:40;;;;;;;;;;;;;;;8.96;45.12;99597.87;4471162;31;34235;-64
2023/01/28 02:05:08;;;;;;;;;;;;;;;8.80;46.09;99602.56;4465969;32;34332;-64
2023/01/28 02:07:36;;;;;;;;;;;;;;;8.92;45.22;99609.69;4471486;32;35264;-64
2023/01/28 02:10:03;;;;;;;;;;;;;;;8.81;45.50;99601.59;4453133;32;33431;-64
2023/01/28 02:12:34;;;;;;;;;;;;;;;8.92;45.27;99595.50;4458742;31;34075;-65
2023/01/28 02:15:08;;;;;;;;;;;;;;;8.65;45.97;99601.81;4456467;32;33569;-64
2023/01/28 02:17:36;;;;;;;;;;;;;;;8.51;46.70;99605.44;4469375;32;34429;-64
2023/01/28 02:20:10;;;;;;;;;;;;;;;8.61;46.51;99605.66;4463938;32;33886;-63
2023/01/28 02:22:38;;;;;;;;;;;;;;;8.56;46.55;99605.09;4457853;32;35230;-64
2023/01/28 02:25:14;;;;;;;;;;;;;;;8.66;46.35;99602.66;4474265;32;34145;-63
2023/01/28 02:27:57;;;;;;;;;;;;;;;8.58;46.88;99601.38;4469467;32;36010;-62
2023/01/28 02:30:25;;;;;;;;;;;;;;;8.73;46.15;99606.59;4458186;32;33504;-62
2023/01/28 02:33:04;;;;;;;;;;;;;;;8.60;46.59;99594.12;4458682;32;34168;-62
2023/01/28 02:35:31;;;;;;;;;;;;;;;8.79;45.93;99599.03;4471628;32;35479;-62
2023/01/28 02:37:59;;;;;;;;;;;;;;;8.92;45.57;99599.03;4469609;32;34581;-62
2023/01/28 02:40:33;;;;;;;;;;;;;;;8.85;45.79;99595.09;4458474;32;35132;-63
2023/01/28 02:43:00;;;;;;;;;;;;;;;9.04;45.32;99594.66;4459074;32;34473;-62
2023/01/28 02:48:21;;;;;;;;;;;;;;;9.06;44.98;99592.72;4445969;32;34266;-61
2023/01/28 02:50:50;;;;;;;;;;;;;;;9.14;44.74;99586.84;4474201;32;33576;-63
2023/01/28 02:53:42;;;;;;;;;;;;;;;8.89;45.53;99590.37;4470822;32;33952;-63
2023/01/28 02:56:28;;;;;;;;;;;;;;;8.98;45.35;99593.25;4470362;32;35270;-63
2023/01/28 02:59:29;;;;;;;;;;;;;;;8.74;45.87;99595.84;4469310;31;35194;-63
2023/01/28 03:01:57;;;;;;;;;;;;;;;9.07;44.74;99594.44;4477379;32;33775;-64
2023/01/28 03:04:26;;;;;;;;;;;;;;;8.39;46.46;99596.44;4471488;32;33944;-64
2023/01/28 03:06:54;;;;;;;;;;;;;;;8.61;46.12;99595.84;4471862;32;34070;-64
2023/01/28 03:09:23;;;;;;;;;;;;;;;8.45;46.96;99589.00;4477311;31;35272;-63
2023/01/28 03:38:19;;;;;;;;;;;;;;;8.39;47.37;99603.59;4460549;32;34624;-63
2023/01/28 03:40:58;;;;;;;;;;;;;;;8.16;47.82;99603.31;4457847;32;35370;-63
2023/01/28 03:43:26;;;;;;;;;;;;;;;8.51;47.17;99602.78;4478477;32;34730;-64
2023/01/28 03:45:54;;;;;;;;;;;;;;;8.70;46.94;99601.47;4458882;32;34176;-64
2023/01/28 03:48:23;;;;;;;;;;;;;;;7.99;48.90;99610.72;4468206;31;33433;-63
2023/01/28 03:50:51;;;;;;;;;;;;;;;8.38;47.58;99609.91;4476454;32;34036;-64
2023/01/28 03:53:18;;;;;;;;;;;;;;;8.48;47.25;99610.97;4472525;32;34300;-63
2023/01/28 03:55:47;;;;;;;;;;;;;;;7.82;50.48;99615.34;4468313;31;33484;-63
2023/01/28 03:58:16;;;;;;;;;;;;;;;8.57;47.56;99612.16;4480404;32;34278;-62
2023/01/28 04:00:44;;;;;;;;;;;;;;;8.81;46.59;99617.63;4469685;31;34053;-62
2023/01/28 04:03:15;;;;;;;;;;;;;;;8.35;47.71;99613.59;4478639;32;35733;-62
2023/01/28 04:05:44;;;;;;;;;;;;;;;8.86;46.20;99620.84;4472241;31;33559;-65
2023/01/28 04:08:12;;;;;;;;;;;;;;;9.03;45.70;99611.63;4465885;32;34283;-63
2023/01/28 04:10:39;;;;;;;;;;;;;;;8.39;47.50;99614.28;4469382;32;33992;-63
2023/01/28 04:13:07;;;;;;;;;;;;;;;8.63;46.80;99612.59;4478684;32;34020;-64
2023/01/28 04:15:35;;;;;;;;;;;;;;;8.40;47.49;99611.47;4474280;32;33732;-63
2023/01/28 04:18:02;;;;;;;;;;;;;;;8.61;46.84;99611.00;4473613;31;33901;-63
2023/01/28 04:20:30;;;;;;;;;;;;;;;8.74;46.44;99608.34;4478833;32;34037;-64
2023/01/28 04:22:57;;;;;;;;;;;;;;;8.26;48.51;99616.88;4475300;32;34041;-64
2023/01/28 04:25:25;;;;;;;;;;;;;;;8.42;47.60;99615.88;4474624;32;34746;-64
2023/01/28 04:27:52;;;;;;;;;;;;;;;8.43;47.34;99618.44;4469851;31;33670;-64
2023/01/28 04:30:20;;;;;;;;;;;;;;;8.20;48.10;99621.78;4476441;32;35461;-63
2023/01/28 04:32:49;;;;;;;;;;;;;;;8.25;47.58;99625.84;4479788;32;35388;-64
2023/01/28 04:35:16;;;;;;;;;;;;;;;8.38;47.53;99617.91;4468494;32;34618;-65
2023/01/28 04:37:44;;;;;;;;;;;;;;;8.35;47.87;99629.59;4468835;32;34784;-64
2023/01/28 04:40:12;;;;;;;;;;;;;;;8.52;47.34;99627.63;4469518;31;33950;-62
2023/01/28 04:42:39;;;;;;;;;;;;;;;8.51;47.10;99626.78;4470889;31;34231;-63
2023/01/28 04:45:07;;;;;;;;;;;;;;;8.67;46.55;99623.03;4473897;32;33597;-63
2023/01/28 04:47:34;;;;;;;;;;;;;;;8.73;46.73;99620.84;4480321;32;33608;-64
2023/01/28 04:50:02;;;;;;;;;;;;;;;8.76;46.56;99625.06;4478132;32;34486;-61
2023/01/28 04:52:31;;;;;;;;;;;;;;;8.46;47.18;99625.38;4472844;31;34627;-62
2023/01/28 04:55:01;;;;;;;;;;;;;;;8.59;46.89;99629.75;4477787;32;33304;-61
2023/01/28 04:57:28;;;;;;;;;;;;;;;8.59;46.61;99636.91;4471203;32;34105;-62
2023/01/28 04:59:56;;;;;;;;;;;;;;;8.26;47.03;99632.03;4468081;32;34249;-62
2023/01/28 05:02:23;;;;;;;;;;;;;;;8.82;45.90;99630.84;4472585;31;34186;-61
2023/01/28 05:04:51;;;;;;;;;;;;;;;8.30;47.29;99637.03;4477103;32;34377;-62
2023/01/28 05:07:20;;;;;;;;;;;;;;;8.08;47.80;99642.94;4475277;32;35178;-62
2023/01/28 05:09:47;;;;;;;;;;;;;;;8.40;47.30;99639.97;4476936;32;34083;-62
2023/01/28 05:12:15;;;;;;;;;;;;;;;8.54;46.88;99647.03;4479191;32;34507;-64
2023/01/28 05:14:43;;;;;;;;;;;;;;;7.84;49.09;99647.22;4474997;32;32939;-61
2023/01/28 05:17:11;;;;;;;;;;;;;;;7.40;50.74;99648.25;4466173;32;34219;-60
2023/01/28 05:19:38;;;;;;;;;;;;;;;7.52;49.98;99652.81;4474740;31;33001;-60
2023/01/28 05:22:07;;;;;;;;;;;;;;;7.89;49.99;99651.28;4474984;32;33888;-63
2023/01/28 05:24:34;;;;;;;;;;;;;;;7.21;50.97;99654.75;4465266;32;34348;-61
2023/01/28 05:27:02;;;;;;;;;;;;;;;7.92;49.81;99653.75;4473734;32;34317;-62
2023/01/28 05:29:30;;;;;;;;;;;;;;;7.92;49.57;99655.56;4477258;31;35504;-62
2023/01/28 05:31:58;;;;;;;;;;;;;;;7.29;51.87;99648.94;4482040;32;35868;-61
2023/01/28 05:34:25;;;;;;;;;;;;;;;7.89;49.68;99650.44;4475750;32;34279;-62
2023/01/28 05:36:53;;;;;;;;;;;;;;;7.82;48.86;99649.97;4471477;31;34005;-60
2023/01/28 05:39:21;;;;;;;;;;;;;;;8.29;47.83;99656.66;4467120;32;35709;-61
2023/01/28 05:41:49;;;;;;;;;;;;;;;8.42;47.19;99656.75;4479422;32;34429;-62
2023/01/28 05:44:16;;;;;;;;;;;;;;;8.56;46.79;99653.13;4477320;32;33349;-63
2023/01/28 05:46:45;;;;;;;;;;;;;;;8.36;47.68;99654.44;4481510;32;34105;-62
2023/01/28 05:49:13;;;;;;;;;;;;;;;7.80;48.85;99657.25;4480719;31;34501;-62
2023/01/28 05:51:44;;;;;;;;;;;;;;;8.28;48.01;99662.09;4480011;32;33397;-61
2023/01/28 05:54:13;;;;;;;;;;;;;;;8.16;48.37;99661.97;4478739;32;33207;-60
2023/01/28 05:56:41;;;;;;;;;;;;;;;7.77;49.39;99664.53;4487370;32;34399;-63
2023/01/28 05:59:12;;;;;;;;;;;;;;;7.64;49.58;99667.13;4484475;32;34024;-61
2023/01/28 06:01:40;;;;;;;;;;;;;;;8.01;48.80;99662.97;4481733;31;32973;-61
2023/01/28 06:04:07;;;;;;;;;;;;;;;7.55;49.64;99667.75;4479206;32;34565;-61
2023/01/28 06:06:34;;;;;;;;;;;;;;;7.02;51.44;99667.47;4476055;31;34080;-60
2023/01/28 06:09:03;;;;;;;;;;;;;;;6.99;51.69;99665.00;4485159;32;35157;-61
2023/01/28 06:11:31;;;;;;;;;;;;;;;7.25;51.87;99668.72;4473703;32;35382;-62
2023/01/28 06:13:58;;;;;;;;;;;;;;;7.08;51.45;99669.75;4475295;32;33343;-61
2023/01/28 06:16:25;;;;;;;;;;;;;;;7.60;50.16;99673.63;4477582;32;33721;-61
2023/01/28 06:18:53;;;;;;;;;;;;;;;7.51;51.44;99675.06;4489124;32;34185;-61
2023/01/28 06:21:20;;;;;;;;;;;;;;;7.78;49.76;99677.78;4477967;32;33166;-61
2023/01/28 06:23:47;;;;;;;;;;;;;;;7.65;50.09;99680.37;4476969;32;34428;-60
2023/01/28 06:26:15;;;;;;;;;;;;;;;7.77;50.05;99685.84;4477537;32;34364;-60
2023/01/28 06:28:43;;;;;;;;;;;;;;;8.28;47.97;99694.09;4486764;32;35129;-61
2023/01/28 06:31:10;;;;;;;;;;;;;;;7.59;49.67;99694.09;4487928;32;35512;-60
2023/01/28 06:33:37;;;;;;;;;;;;;;;7.91;48.83;99699.16;4485439;32;33485;-60
2023/01/28 06:36:07;;;;;;;;;;;;;;;8.12;48.40;99705.78;4476449;32;32764;-61
2023/01/28 06:38:35;;;;;;;;;;;;;;;7.46;50.89;99704.66;4477898;32;33895;-61
2023/01/28 06:41:02;;;;;;;;;;;;;;;8.11;48.62;99704.06;4475005;31;33259;-61
2023/01/28 06:43:29;;;;;;;;;;;;;;;7.89;49.46;99703.72;4483150;32;32336;-60
2023/01/28 06:45:56;;;;;;;;;;;;;;;7.64;51.18;99715.09;4477205;32;34139;-60
2023/01/28 06:48:25;;;;;;;;;;;;;;;8.15;48.37;99721.59;4474896;32;34410;-61
2023/01/28 06:50:52;;;;;;;;;;;;;;;7.82;49.28;99721.94;4480710;32;33998;-61
2023/01/28 06:53:20;;;;;;;;;;;;;;;7.61;50.63;99720.63;4471249;32;33378;-61
2023/01/28 06:55:47;;;;;;;;;;;;;;;7.89;49.27;99731.22;4472175;32;34135;-60
2023/01/28 06:58:15;;;;;;;;;;;;;;;7.91;49.02;99729.34;4469040;32;34843;-60
2023/01/28 07:00:42;;;;;;;;;;;;;;;8.38;47.98;99735.25;4482353;32;34505;-60
2023/01/28 07:03:09;;;;;;;;;;;;;;;8.21;48.60;99736.31;4469826;32;33786;-62
2023/01/28 07:05:37;;;;;;;;;;;;;;;7.70;50.98;99738.69;4478645;32;34368;-61
2023/01/28 07:08:04;;;;;;;;;;;;;;;7.76;49.26;99734.78;4479380;31;34064;-60
2023/01/28 07:10:32;;;;;;;;;;;;;;;8.14;49.50;99741.19;4481822;32;34453;-63
2023/01/28 07:12:59;;;;;;;;;;;;;;;8.37;48.13;99742.34;4474634;31;33996;-61
2023/01/28 07:15:26;;;;;;;;;;;;;;;8.51;47.35;99743.31;4474367;32;34723;-61
2023/01/28 07:17:54;;;;;;;;;;;;;;;8.13;49.19;99744.81;4473613;32;34094;-60
2023/01/28 07:20:21;;;;;;;;;;;;;;;8.21;48.04;99746.97;4468512;32;35555;-61
2023/01/28 07:22:48;;;;;;;;;;;;;;;7.69;49.43;99751.16;4474207;32;32690;-61
2023/01/28 07:25:16;;;;;;;;;;;;;;;7.54;50.41;99753.91;4477300;32;35312;-61
2023/01/28 07:27:47;;;;;;;;;;;;;;;7.78;49.26;99760.38;4477939;32;34386;-62
2023/01/28 07:30:14;;;;;;;;;;;;;;;7.66;50.71;99764.66;4473700;32;34034;-62
2023/01/28 07:32:42;;;;;;;;;;;;;;;7.87;48.73;99765.13;4456078;32;33245;-61
2023/01/28 07:35:09;;;;;;;;;;;;;;;7.91;48.79;99765.78;4472420;32;34682;-61
2023/01/28 07:37:37;;;;;;;;;;;;;;;8.06;48.28;99758.66;4474518;32;35490;-60
2023/01/28 07:40:04;;;;;;;;;;;;;;;7.70;49.22;99762.66;4469378;32;34655;-61
2023/01/28 07:42:32;;;;;;;;;;;;;;;7.91;49.52;99763.13;4477306;32;33497;-60
2023/01/28 07:45:03;;;;;;;;;;;;;;;8.07;48.82;99771.84;4474702;32;34369;-62
2023/01/28 07:47:31;;;;;;;;;;;;;;;8.46;47.54;99772.94;4474231;31;34545;-62
2023/01/28 07:49:59;;;;;;;;;;;;;;;7.98;49.51;99766.25;4470985;31;32959;-61
2023/01/28 07:52:26;;;;;;;;;;;;;;;7.75;50.05;99765.06;4480420;31;34699;-61
2023/01/28 07:54:53;;;;;;;;;;;;;;;7.93;49.62;99764.75;4480514;32;34021;-62
2023/01/28 07:57:23;;;;;;;;;;;;;;;8.41;48.04;99761.72;4478857;32;32798;-60
2023/01/28 07:59:50;;;;;;;;;;;;;;;8.63;47.26;99764.69;4477129;32;34386;-60
2023/01/28 08:02:18;;;;;;;;;;;;;;;8.46;47.73;99772.06;4478647;32;33978;-60
2023/01/28 08:04:46;;;;;;;;;;;;;;;8.64;47.36;99770.88;4471251;32;34156;-62
2023/01/28 08:07:13;;;;;;;;;;;;;;;8.46;47.76;99772.94;4469645;32;35183;-61
2023/01/28 08:09:40;;;;;;;;;;;;;;;7.61;49.76;99772.09;4479005;32;35473;-61
2023/01/28 08:12:08;;;;;;;;;;;;;;;8.30;48.60;99778.38;4480489;31;33617;-61
2023/01/28 08:14:35;;;;;;;;;;;;;;;8.89;46.94;99771.87;4468355;32;35307;-61
2023/01/28 08:17:02;;;;;;;;;;;;;;;7.41;52.54;99780.44;4469547;32;34924;-61
2023/01/28 08:19:30;;;;;;;;;;;;;;;8.37;48.50;99778.81;4477130;32;34448;-60
2023/01/28 08:21:57;;;;;;;;;;;;;;;8.37;48.70;99773.50;4476822;32;34696;-63
2023/01/28 08:24:24;;;;;;;;;;;;;;;7.92;49.67;99772.81;4479603;31;34959;-61
2023/01/28 08:26:52;;;;;;;;;;;;;;;7.81;50.27;99770.00;4476668;32;34495;-61
2023/01/28 08:29:19;;;;;;;;;;;;;;;8.13;49.15;99773.28;4481812;31;34422;-61
2023/01/28 08:31:46;;;;;;;;;;;;;;;8.37;48.61;99778.81;4475381;32;33586;-61
2023/01/28 08:34:14;;;;;;;;;;;;;;;8.02;49.38;99781.94;4472925;31;33865;-62
2023/01/28 08:36:41;;;;;;;;;;;;;;;7.87;50.94;99774.94;4479022;32;34440;-61
2023/01/28 08:39:08;;;;;;;;;;;;;;;7.74;49.81;99780.19;4477591;32;34714;-63
2023/01/28 08:41:35;;;;;;;;;;;;;;;7.78;50.71;99791.50;4479726;32;34482;-61
2023/01/28 08:44:03;;;;;;;;;;;;;;;8.27;49.70;99791.91;4470081;32;34275;-62
2023/01/28 08:46:30;;;;;;;;;;;;;;;8.48;48.48;99797.69;4470891;32;33042;-62
2023/01/28 08:48:57;;;;;;;;;;;;;;;7.51;51.57;99799.38;4470612;32;32709;-60
2023/01/28 08:51:25;;;;;;;;;;;;;;;7.79;50.44;99798.53;4479576;32;33771;-62
2023/01/28 08:53:52;;;;;;;;;;;;;;;7.61;51.79;99806.72;4476041;32;35258;-63
2023/01/28 08:56:19;;;;;;;;;;;;;;;7.69;50.60;99804.44;4482125;32;34923;-60
2023/01/28 08:58:46;;;;;;;;;;;;;;;7.99;50.43;99803.47;4478208;31;34310;-62
2023/01/28 09:01:14;;;;;;;;;;;;;;;8.64;48.35;99805.56;4478503;32;33652;-62
2023/01/28 09:03:41;;;;;;;;;;;;;;;7.96;50.45;99803.69;4473057;31;34223;-60
2023/01/28 09:06:08;;;;;;;;;;;;;;;7.68;52.33;99810.72;4471827;32;34857;-62
2023/01/28 09:08:36;;;;;;;;;;;;;;;7.92;50.22;99811.00;4484673;32;35040;-61
2023/01/28 09:11:03;;;;;;;;;;;;;;;8.01;50.62;99814.03;4480109;32;34645;-61
2023/01/28 09:13:30;;;;;;;;;;;;;;;8.38;50.22;99815.25;4484115;32;34044;-61
2023/01/28 09:15:58;;;;;;;;;;;;;;;8.18;50.25;99819.16;4468212;31;33214;-62
2023/01/28 09:18:25;;;;;;;;;;;;;;;8.27;50.10;99825.72;4481297;32;33237;-61
2023/01/28 09:20:52;;;;;;;;;;;;;;;8.59;49.50;99823.66;4479690;32;34255;-62
2023/01/28 09:23:19;;;;;;;;;;;;;;;7.95;50.86;99823.28;4477710;31;34168;-62
2023/01/28 09:25:47;;;;;;;;;;;;;;;8.55;49.34;99825.69;4469747;32;33769;-60
2023/01/28 09:28:14;;;;;;;;;;;;;;;8.29;50.18;99832.66;4474756;32;34388;-61
2023/01/28 09:30:41;;;;;;;;;;;;;;;8.42;50.75;99830.09;4471363;31;33691;-61
2023/01/28 09:33:09;;;;;;;;;;;;;;;8.86;48.93;99831.69;4477571;32;33929;-61
2023/01/28 09:35:36;;;;;;;;;;;;;;;9.32;47.92;99839.28;4472097;32;35141;-60
2023/01/28 09:38:04;;;;;;;;;;;;;;;8.91;47.82;99828.69;4476500;32;33274;-61
2023/01/28 09:40:36;;;;;;;;;;;;;;;8.37;49.86;99830.34;4473887;31;33332;-62
2023/01/28 09:43:03;;;;;;;;;;;;;;;8.95;47.40;99833.72;4465921;32;35300;-62
2023/01/28 09:45:38;;;;;;;;;;;;;;;8.20;50.25;99827.91;4474408;32;34281;-61
2023/01/28 09:48:05;;;;;;;;;;;;;;;8.71;49.58;99830.03;4469133;32;35265;-61
2023/01/28 09:50:37;;;;;;;;;;;;;;;8.56;49.42;99835.38;4461977;32;32130;-63
2023/01/28 09:53:06;;;;;;;;;;;;;;;8.89;48.70;99822.59;4466013;32;34054;-62
2023/01/28 09:55:38;;;;;;;;;;;;;;;8.85;48.56;99828.13;4458626;32;33110;-62
2023/01/28 09:58:10;;;;;;;;;;;;;;;9.03;47.43;99835.91;4452496;32;34822;-61
2023/01/28 10:00:57;;;;;;;;;;;;;;;8.75;48.12;99828.84;4463617;32;33312;-63
2023/01/28 10:03:37;;;;;;;;;;;;;;;9.35;47.05;99835.53;4454074;32;34048;-62
2023/01/28 10:06:05;;;;;;;;;;;;;;;8.99;48.16;99829.91;4469813;32;34588;-62
2023/01/28 10:08:41;;;;;;;;;;;;;;;9.06;48.65;99827.69;4484449;32;35199;-61
2023/01/28 10:11:15;;;;;;;;;;;;;;;8.75;49.62;99818.19;4473944;31;33233;-62
2023/01/28 10:13:55;;;;;;;;;;;;;;;9.02;48.42;99816.34;4468192;32;34092;-61
2023/01/28 10:16:25;;;;;;;;;;;;;;;9.35;47.53;99811.50;4475478;32;34250;-62
2023/01/28 10:18:54;;;;;;;;;;;;;;;9.15;47.95;99819.06;4483122;32;35431;-61
2023/01/28 10:21:26;;;;;;;;;;;;;;;8.96;48.56;99818.59;4457872;32;33692;-61
2023/01/28 10:23:58;;;;;;;;;;;;;;;9.70;46.80;99825.09;4453039;32;35347;-62
2023/01/28 10:26:33;;;;;;;;;;;;;;;9.10;47.22;99822.03;4474749;32;32656;-61
2023/01/28 10:29:12;;;;;;;;;;;;;;;8.97;49.28;99820.28;4460574;32;34598;-62
2023/01/28 10:31:53;;;;;;;;;;;;;;;8.97;48.38;99825.63;4464347;32;33794;-62
2023/01/28 10:34:20;;;;;;;;;;;;;;;8.88;48.63;99816.41;4469989;32;33942;-61
2023/01/28 10:36:48;;;;;;;;;;;;;;;9.31;46.95;99813.53;4457811;32;35444;-60
2023/01/28 10:39:16;;;;;;;;;;;;;;;9.17;48.17;99822.47;4466209;32;34312;-62
2023/01/28 10:41:43;;;;;;;;;;;;;;;9.68;46.68;99821.66;4464571;32;35061;-61
2023/01/28 10:44:31;;;;;;;;;;;;;;;8.23;49.74;99822.41;4472411;32;34534;-62
2023/01/28 10:47:00;;;;;;;;;;;;;;;9.05;47.56;99824.16;4456412;32;34374;-62
2023/01/28 10:49:28;;;;;;;;;;;;;;;9.45;46.54;99826.78;4470541;32;34985;-62
2023/01/28 10:51:55;;;;;;;;;;;;;;;9.66;46.97;99821.78;4453715;32;33774;-62
2023/01/28 10:54:24;;;;;;;;;;;;;;;8.73;49.11;99826.31;4471452;32;32784;-62
2023/01/28 10:57:01;;;;;;;;;;;;;;;8.86;48.13;99821.00;4469082;32;35504;-61
2023/01/28 10:59:29;;;;;;;;;;;;;;;9.54;46.73;99822.62;4481717;32;34594;-63
2023/01/28 11:02:18;;;;;;;;;;;;;;;9.36;47.11;99819.41;4469742;31;33690;-62
2023/01/28 11:04:45;;;;;;;;;;;;;;;9.88;45.44;99821.09;4460843;32;33887;-62
2023/01/28 11:07:19;;;;;;;;;;;;;;;9.45;46.91;99821.44;4480676;31;34324;-62
2023/01/28 11:09:48;;;;;;;;;;;;;;;10.14;44.82;99829.94;4481700;32;33824;-62
2023/01/28 11:12:19;;;;;;;;;;;;;;;10.01;45.23;99824.59;4477081;32;32215;-63
2023/01/28 11:14:51;;;;;;;;;;;;;;;9.23;47.35;99829.22;4474610;32;34102;-63
2023/01/28 11:17:19;;;;;;;;;;;;;;;9.00;47.71;99825.41;4469474;32;35496;-63
2023/01/28 11:19:46;;;;;;;;;;;;;;;9.30;47.78;99818.00;4469329;32;34494;-61
2023/01/28 11:22:25;;;;;;;;;;;;;;;9.40;46.45;99817.37;4475589;31;33443;-63
2023/01/28 11:24:53;;;;;;;;;;;;;;;9.61;46.85;99815.88;4460494;32;33985;-61
2023/01/28 11:27:21;;;;;;;;;;;;;;;9.16;47.67;99820.75;4478576;31;32570;-62
2023/01/28 11:29:48;;;;;;;;;;;;;;;9.09;48.30;99814.12;4475184;32;33865;-61
2023/01/28 11:32:17;;;;;;;;;;;;;;;9.19;47.57;99811.69;4455112;32;33612;-62
2023/01/28 11:34:49;;;;;;;;;;;;;;;9.62;46.29;99808.72;4454192;32;34749;-61
2023/01/28 11:37:17;;;;;;;;;;;;;;;9.29;47.37;99808.28;4468174;31;34294;-62
2023/01/28 11:39:44;;;;;;;;;;;;;;;9.21;47.16;99812.41;4468182;32;35353;-61
2023/01/28 11:42:13;;;;;;;;;;;;;;;8.72;48.76;99811.22;4469035;32;34557;-61
2023/01/28 11:44:41;;;;;;;;;;;;;;;8.79;48.92;99807.19;4472073;32;34285;-61
2023/01/28 11:47:24;;;;;;;;;;;;;;;9.01;47.60;99811.09;4479940;31;35546;-61
2023/01/28 11:50:10;;;;;;;;;;;;;;;9.19;46.67;99809.03;4468380;31;34229;-61
2023/01/28 11:52:45;;;;;;;;;;;;;;;9.36;46.42;99811.37;4474672;32;32122;-63
2023/01/28 11:55:39;;;;;;;;;;;;;;;9.83;44.99;99811.72;4465117;32;33866;-63
2023/01/28 11:58:25;;;;;;;;;;;;;;;8.42;48.55;99803.44;4458353;32;35275;-63
2023/01/28 12:00:52;;;;;;;;;;;;;;;9.01;47.85;99803.94;4472676;32;34936;-63
2023/01/28 12:03:39;;;;;;;;;;;;;;;9.24;46.46;99799.72;4472273;32;35465;-63
2023/01/28 12:06:25;;;;;;;;;;;;;;;9.25;46.29;99800.59;4475927;32;34034;-63
2023/01/28 12:09:11;;;;;;;;;;;;;;;8.74;48.28;99800.47;4470351;32;34217;-63
2023/01/28 12:14:37;;;;;;;;;;;;;;;8.85;47.74;99798.78;4459290;32;32216;-63
2023/01/28 12:17:20;;;;;;;;;;;;;;;8.94;47.45;99797.31;4467393;31;34508;-63
2023/01/28 12:19:48;;;;;;;;;;;;;;;8.53;49.20;99787.56;4453877;32;34132;-64
2023/01/28 12:22:20;;;;;;;;;;;;;;;8.78;48.42;99793.97;4474715;32;34454;-63
2023/01/28 12:24:56;;;;;;;;;;;;;;;8.40;49.88;99794.66;4456384;32;33481;-63
2023/01/28 12:27:41;;;;;;;;;;;;;;;8.67;48.13;99796.47;4467653;32;34551;-63
2023/01/28 12:30:13;;;;;;;;;;;;;;;8.83;47.36;99789.19;4469858;32;35031;-64
2023/01/28 12:32:48;;;;;;;;;;;;;;;8.85;47.63;99790.78;4458951;32;34344;-62
2023/01/28 12:35:23;;;;;;;;;;;;;;;8.58;48.84;99785.47;4465104;32;33720;-62
2023/01/28 12:37:51;;;;;;;;;;;;;;;8.24;50.00;99789.44;4453365;32;34035;-63
2023/01/28 12:40:48;;;;;;;;;;;;;;;9.11;47.28;99798.84;4472438;32;34598;-63
2023/01/28 12:43:20;;;;;;;;;;;;;;;8.61;48.72;99793.28;4454326;32;34462;-62
2023/01/28 12:45:54;;;;;;;;;;;;;;;8.94;47.27;99797.31;4471005;31;32461;-61
2023/01/28 12:48:31;;;;;;;;;;;;;;;8.97;47.93;99802.44;4454715;32;34259;-64
2023/01/28 12:51:02;;;;;;;;;;;;;;;8.45;48.54;99797.06;4476243;32;35509;-64
2023/01/28 12:53:41;;;;;;;;;;;;;;;8.75;48.38;99803.03;4473151;32;35297;-64
2023/01/28 12:56:29;;;;;;;;;;;;;;;8.50;48.84;99801.09;4473530;32;33834;-64
2023/01/28 12:59:04;;;;;;;;;;;;;;;8.28;50.05;99798.97;4469293;32;33908;-62
2023/01/28 13:01:37;;;;;;;;;;;;;;;8.66;49.11;99802.78;4457300;32;34243;-64
2023/01/28 13:04:08;;;;;;;;;;;;;;;8.87;48.77;99798.69;4480233;32;34390;-64
2023/01/28 13:06:43;;;;;;;;;;;;;;;9.03;48.12;99803.84;4476263;32;33843;-62
2023/01/28 13:09:14;;;;;;;;;;;;;;;8.76;48.96;99803.87;4477266;32;34125;-64
2023/01/28 13:11:41;;;;;;;;;;;;;;;8.95;47.79;99806.19;4455089;32;33543;-61
2023/01/28 13:14:08;;;;;;;;;;;;;;;8.11;49.66;99805.34;4461067;32;34749;-62
2023/01/28 13:16:36;;;;;;;;;;;;;;;9.21;47.06;99810.63;4459659;32;32474;-63
2023/01/28 13:19:16;;;;;;;;;;;;;;;9.15;47.19;99812.84;4476193;31;32691;-62
2023/01/28 13:21:43;;;;;;;;;;;;;;;9.03;47.48;99818.06;4482677;32;34179;-62
2023/01/28 13:24:15;;;;;;;;;;;;;;;8.74;48.75;99816.47;4478327;31;34740;-62
2023/01/28 13:26:43;;;;;;;;;;;;;;;9.54;46.48;99822.62;4478666;32;33290;-62
2023/01/28 13:29:14;;;;;;;;;;;;;;;8.65;49.71;99814.41;4481851;32;34945;-62
2023/01/28 13:31:42;;;;;;;;;;;;;;;8.80;48.27;99821.41;4479518;31;33470;-64
2023/01/28 13:34:28;;;;;;;;;;;;;;;8.98;47.38;99824.66;4471833;32;34613;-63
2023/01/28 13:36:56;;;;;;;;;;;;;;;9.08;47.50;99825.75;4480184;32;33647;-64
2023/01/28 13:39:24;;;;;;;;;;;;;;;9.03;47.17;99830.56;4474125;32;34385;-63
2023/01/28 13:41:52;;;;;;;;;;;;;;;9.37;46.54;99823.75;4473010;32;34208;-61
2023/01/28 13:44:25;;;;;;;;;;;;;;;9.03;47.38;99831.41;4467491;32;35114;-62